Terminal Aerodrome Forecast
Issued by NWS

Home | Current Version | Previous Version | Text Only | Print | Product List | Glossary On
Versions: 1 2 3 4 5 6 7 8 9 10 11 12 13 14 15 16 17 18 19 20 21 22 23 24 25
000
FTUS41 KBUF 230522
TAFJHW
TAF
KJHW 230522Z 2306/2406 17009KT P6SM BKN250
     FM231900 16013G19KT P6SM OVC130
     FM232300 15016G23KT 6SM -RA OVC040
     FM240000 15016G25KT 6SM RA OVC040 WS020/16050KT
     FM240200 17019G28KT 3SM RA OVC015
     FM240500 18017G25KT 4SM -RA OVC020
      AMD LTD TO CLD VIS AND WIND=

USA.gov is the U.S. government's official web portal to all federal, state and local government web resources and services.